Time;durP1;ratioP1;P1;durP2;ratioP2;P2;SDS_P1;SDS_P2;PMS_P1;PMS_P2;Temp;Humidity;BMP_temperature;BMP_pressure;BME280_temperature;BME280_humidity;BME280_pressure;Samples;Min_cycle;Max_cycle;Signal;HPM_P1;HPM_P2
2022/03/10 00:00:29;;;;;;;21.88;19.67;;;;;;;0.86;56.51;99349.09;4170819;28;20216;-49
2022/03/10 00:02:31;;;;;;;21.13;18.92;;;;;;;0.82;56.42;99349.59;4136668;28;20252;-49
2022/03/10 00:04:37;;;;;;;21.30;19.27;;;;;;;0.79;56.57;99353.47;4136076;28;20470;-52
2022/03/10 00:06:39;;;;;;;20.07;18.13;;;;;;;0.74;56.36;99347.75;4135449;28;20202;-48
2022/03/10 00:08:40;;;;;;;18.87;16.90;;;;;;;0.74;56.59;99350.44;4120071;28;20230;-48
2022/03/10 00:10:45;;;;;;;19.70;17.63;;;;;;;0.69;56.43;99347.41;4137508;28;20257;-50
2022/03/10 00:12:48;;;;;;;18.27;16.50;;;;;;;0.72;56.51;99347.09;4135126;28;20262;-49
2022/03/10 00:14:50;;;;;;;18.97;17.13;;;;;;;0.62;56.66;99346.38;4152618;28;20214;-48
2022/03/10 00:16:55;;;;;;;18.70;16.90;;;;;;;0.61;56.72;99344.72;4153769;28;20205;-51
2022/03/10 00:18:57;;;;;;;21.97;16.83;;;;;;;0.54;56.97;99351.78;4139720;28;20328;-49
2022/03/10 00:20:59;;;;;;;17.27;15.67;;;;;;;0.57;56.50;99354.16;4151133;28;20197;-49
2022/03/10 00:23:00;;;;;;;18.33;16.60;;;;;;;0.54;56.49;99351.78;4153823;28;20220;-49
2022/03/10 00:25:03;;;;;;;17.30;15.57;;;;;;;0.49;56.99;99346.03;4152998;28;20221;-49
2022/03/10 00:27:05;;;;;;;18.60;16.53;;;;;;;0.53;56.86;99349.22;4166207;28;20208;-49
2022/03/10 00:29:06;;;;;;;18.53;16.77;;;;;;;0.51;57.07;99348.56;4135404;28;20709;-52
2022/03/10 00:31:09;;;;;;;18.47;16.77;;;;;;;0.50;57.08;99353.13;4134977;28;20218;-50
2022/03/10 00:33:11;;;;;;;20.07;18.17;;;;;;;0.48;57.15;99354.31;4153424;28;20216;-52
2022/03/10 00:35:23;;;;;;;18.67;16.95;;;;;;;0.47;57.08;99352.63;4152797;28;21294;-48
2022/03/10 00:37:30;;;;;;;18.37;16.57;;;;;;;0.45;57.17;99355.47;4136260;28;20256;-50
2022/03/10 00:39:31;;;;;;;19.05;17.25;;;;;;;0.42;57.29;99361.16;4135317;28;21989;-49
2022/03/10 00:41:33;;;;;;;19.47;17.60;;;;;;;0.39;57.33;99356.13;4139331;28;20217;-49
2022/03/10 00:43:35;;;;;;;19.73;17.97;;;;;;;0.37;57.38;99352.78;4134933;28;20206;-49
2022/03/10 00:45:37;;;;;;;20.27;18.17;;;;;;;0.37;57.41;99354.59;4134786;28;20633;-51
2022/03/10 00:47:40;;;;;;;19.80;17.90;;;;;;;0.36;57.44;99359.13;4168904;28;20413;-49
2022/03/10 00:49:41;;;;;;;18.60;16.83;;;;;;;0.32;57.42;99352.41;4167659;28;21816;-51
2022/03/10 00:51:45;;;;;;;18.37;16.67;;;;;;;0.23;57.99;99347.19;4138535;28;20201;-50
2022/03/10 00:53:46;;;;;;;17.67;15.80;;;;;;;0.13;58.62;99355.41;4154178;28;20263;-50
2022/03/10 00:55:48;;;;;;;17.87;16.17;;;;;;;0.17;58.30;99355.91;4168618;28;20230;-50
2022/03/10 00:57:50;;;;;;;16.63;14.93;;;;;;;0.19;58.00;99349.34;4152445;28;20213;-48
2022/03/10 00:59:51;;;;;;;18.43;16.83;;;;;;;0.23;57.87;99361.50;4135353;28;20229;-48
2022/03/10 01:01:53;;;;;;;17.83;16.17;;;;;;;0.21;57.97;99360.78;4149997;28;20208;-49
2022/03/10 01:03:55;;;;;;;18.27;15.20;;;;;;;0.15;57.96;99358.75;4137874;28;20262;-50
2022/03/10 01:05:57;;;;;;;20.00;17.27;;;;;;;0.16;58.21;99365.81;4152437;28;20249;-52
2022/03/10 01:07:59;;;;;;;21.00;16.37;;;;;;;0.17;58.10;99367.53;4132394;28;21169;-48
2022/03/10 01:10:02;;;;;;;17.50;15.87;;;;;;;0.16;58.19;99365.81;4137802;28;20294;-48
2022/03/10 01:12:04;;;;;;;17.50;15.63;;;;;;;0.18;57.77;99362.97;4131640;28;20241;-52
2022/03/10 01:14:08;;;;;;;17.63;15.93;;;;;;;0.16;58.01;99360.44;4168396;28;20196;-48
2022/03/10 01:16:10;;;;;;;18.80;16.90;;;;;;;0.12;57.76;99353.72;4166157;28;20196;-50
2022/03/10 01:18:13;;;;;;;18.47;16.43;;;;;;;0.05;58.24;99358.06;4135812;28;20220;-51
2022/03/10 01:20:19;;;;;;;17.00;15.23;;;;;;;0.01;58.58;99355.88;4138392;28;20213;-50
2022/03/10 01:22:21;;;;;;;19.80;17.93;;;;;;;0.01;58.64;99362.06;4150359;28;21811;-50
2022/03/10 01:24:23;;;;;;;20.57;17.37;;;;;;;-0.01;58.56;99363.25;4138375;28;20217;-49
2022/03/10 01:26:25;;;;;;;20.00;18.10;;;;;;;-0.03;58.84;99355.34;4135051;28;20208;-51
2022/03/10 01:28:27;;;;;;;20.70;17.37;;;;;;;-0.02;58.45;99353.50;4136661;28;20697;-50
2022/03/10 01:30:31;;;;;;;18.83;16.83;;;;;;;-0.03;58.43;99349.97;4153897;28;20209;-49
2022/03/10 01:32:34;;;;;;;18.33;16.67;;;;;;;-0.03;58.23;99355.34;4121719;28;20670;-49
2022/03/10 01:34:36;;;;;;;18.67;16.73;;;;;;;-0.08;58.53;99346.94;4137105;28;20216;-51
2022/03/10 01:36:37;;;;;;;21.30;17.50;;;;;;;-0.12;58.72;99345.56;4151044;28;20673;-49
2022/03/10 01:38:39;;;;;;;16.77;15.27;;;;;;;-0.10;58.67;99356.16;4137226;28;20245;-49
2022/03/10 01:40:44;;;;;;;20.50;15.67;;;;;;;-0.08;58.67;99346.06;4136063;28;20260;-48
2022/03/10 01:42:47;;;;;;;16.73;15.13;;;;;;;-0.10;58.97;99345.41;4134362;28;20210;-52
2022/03/10 01:44:53;;;;;;;17.87;16.13;;;;;;;-0.08;58.70;99339.88;4133824;28;20275;-49
2022/03/10 01:46:55;;;;;;;17.77;15.77;;;;;;;-0.09;58.83;99344.41;4119260;28;20233;-51
2022/03/10 01:48:57;;;;;;;17.90;16.10;;;;;;;-0.11;58.38;99347.22;4134115;28;20229;-50
2022/03/10 01:50:59;;;;;;;16.93;14.90;;;;;;;-0.09;58.58;99348.94;4131209;28;20602;-49
2022/03/10 01:53:02;;;;;;;17.77;15.97;;;;;;;-0.11;58.69;99349.94;4133003;28;20205;-49
2022/03/10 01:55:04;;;;;;;17.47;15.77;;;;;;;-0.13;58.64;99343.06;4134333;28;20205;-50
2022/03/10 01:57:06;;;;;;;19.07;17.27;;;;;;;-0.15;58.70;99345.03;4134581;28;20241;-49
2022/03/10 01:59:09;;;;;;;18.47;16.37;;;;;;;-0.21;58.79;99340.31;4126295;28;20442;-51
2022/03/10 02:01:11;;;;;;;20.07;18.17;;;;;;;-0.27;58.83;99345.50;4162220;28;20212;-49
2022/03/10 02:03:13;;;;;;;19.07;17.23;;;;;;;-0.36;59.18;99338.41;4134220;28;20712;-49
2022/03/10 02:05:14;;;;;;;22.93;18.07;;;;;;;-0.43;59.26;99340.03;4133474;28;20356;-51
2022/03/10 02:11:58;;;;;;;18.67;16.87;;;;;;;-0.40;59.26;99339.75;4150129;28;20208;-48
2022/03/10 02:17:19;;;;;;;17.97;16.27;;;;;;;-0.40;59.46;99339.75;4135055;28;20571;-48
2022/03/10 02:18:42;;;;;;;19.70;18.03;;;;;;;-0.48;59.89;99337.00;4149587;28;20319;-49
2022/03/10 02:20:44;;;;;;;19.17;17.47;;;;;;;-0.50;59.66;99334.47;4134340;28;20228;-51
2022/03/10 02:22:45;;;;;;;20.07;16.73;;;;;;;-0.49;59.53;99327.28;4167185;28;20208;-49
2022/03/10 02:24:50;;;;;;;18.97;15.70;;;;;;;-0.47;59.78;99336.00;4152629;28;21182;-49
2022/03/10 02:26:52;;;;;;;18.27;16.67;;;;;;;-0.47;59.74;99333.31;4136610;28;20232;-48
2022/03/10 02:28:54;;;;;;;17.67;15.47;;;;;;;-0.53;60.22;99334.81;4166110;28;20269;-48
2022/03/10 02:30:56;;;;;;;18.13;16.53;;;;;;;-0.58;59.97;99330.91;4166445;28;20208;-50
2022/03/10 02:32:58;;;;;;;17.33;15.63;;;;;;;-0.64;60.05;99328.84;4142205;28;20237;-52
2022/03/10 02:35:00;;;;;;;17.87;16.13;;;;;;;-0.61;59.77;99337.44;4139539;28;20206;-50
2022/03/10 02:37:02;;;;;;;18.00;16.33;;;;;;;-0.64;59.86;99334.22;4137910;28;20205;-50
2022/03/10 02:39:04;;;;;;;17.57;16.03;;;;;;;-0.69;59.79;99340.09;4137841;28;20336;-49
2022/03/10 02:41:06;;;;;;;16.93;15.33;;;;;;;-0.71;60.02;99333.19;4140245;28;20264;-48
2022/03/10 02:43:07;;;;;;;17.40;15.80;;;;;;;-0.73;60.16;99329.81;4155187;28;20679;-49
2022/03/10 02:45:09;;;;;;;19.97;17.20;;;;;;;-0.72;60.43;99336.88;4129095;28;20633;-49
2022/03/10 02:47:11;;;;;;;20.13;15.77;;;;;;;-0.69;59.85;99342.78;4155579;28;20201;-49
2022/03/10 02:49:13;;;;;;;16.27;14.73;;;;;;;-0.67;59.94;99332.69;4172255;28;20224;-49
2022/03/10 02:51:15;;;;;;;17.17;15.50;;;;;;;-0.66;60.04;99334.41;4145117;28;20283;-49
2022/03/10 02:53:16;;;;;;;17.73;15.93;;;;;;;-0.66;60.22;99333.56;4143738;28;20209;-49
2022/03/10 02:55:18;;;;;;;24.30;17.27;;;;;;;-0.68;60.16;99341.75;4146404;28;20244;-48
2022/03/10 02:57:20;;;;;;;18.20;16.67;;;;;;;-0.69;60.50;99331.19;4142666;28;20752;-49
2022/03/10 02:59:22;;;;;;;18.53;16.53;;;;;;;-0.74;60.06;99330.81;4138108;28;20570;-49
2022/03/10 03:01:23;;;;;;;17.63;15.83;;;;;;;-0.77;60.12;99333.81;4158340;28;20223;-52
2022/03/10 03:03:25;;;;;;;16.10;14.47;;;;;;;-0.76;60.20;99332.81;4162539;28;20704;-50
2022/03/10 03:05:27;;;;;;;17.63;16.03;;;;;;;-0.77;60.11;99331.13;4143065;28;20240;-48
2022/03/10 03:07:29;;;;;;;18.50;16.80;;;;;;;-0.77;60.44;99336.50;4146671;28;20209;-49
2022/03/10 03:09:30;;;;;;;16.93;15.30;;;;;;;-0.79;60.13;99328.63;4140049;28;20229;-49
2022/03/10 03:11:32;;;;;;;16.43;14.83;;;;;;;-0.82;60.15;99334.28;4154579;28;20215;-50
2022/03/10 03:13:34;;;;;;;18.37;16.47;;;;;;;-0.86;60.28;99337.47;4130238;28;20783;-50
2022/03/10 03:15:35;;;;;;;16.80;15.27;;;;;;;-0.88;60.18;99340.28;4156849;28;20196;-49
2022/03/10 03:17:37;;;;;;;17.23;15.60;;;;;;;-0.89;60.06;99349.34;4154618;28;20207;-50
2022/03/10 03:19:39;;;;;;;18.93;15.97;;;;;;;-0.90;60.37;99353.06;4146093;28;20259;-48
2022/03/10 03:21:41;;;;;;;19.43;16.97;;;;;;;-0.92;60.27;99356.88;4139747;28;20224;-49
2022/03/10 03:23:43;;;;;;;20.93;16.90;;;;;;;-0.94;60.62;99356.22;4157335;28;20221;-51
2022/03/10 03:25:44;;;;;;;19.83;17.60;;;;;;;-0.97;60.58;99356.50;4146354;28;20267;-48
2022/03/10 03:27:46;;;;;;;20.10;18.03;;;;;;;-0.95;60.59;99357.22;4170584;28;20204;-49
2022/03/10 03:29:48;;;;;;;24.57;22.23;;;;;;;-0.96;60.77;99352.81;4171051;28;20294;-48
2022/03/10 03:31:50;;;;;;;26.13;23.03;;;;;;;-1.04;61.08;99352.78;4140053;28;20702;-48
2022/03/10 03:33:52;;;;;;;26.80;21.77;;;;;;;-1.08;61.40;99354.09;4156318;28;20240;-48
2022/03/10 03:35:53;;;;;;;22.23;20.13;;;;;;;-1.09;61.41;99347.06;4155248;28;20211;-49
2022/03/10 03:37:55;;;;;;;22.07;19.57;;;;;;;-1.14;61.22;99352.03;4146675;28;20223;-49
2022/03/10 03:39:57;;;;;;;21.17;19.07;;;;;;;-1.16;61.21;99343.28;4144814;28;20229;-49
2022/03/10 03:41:59;;;;;;;20.07;18.27;;;;;;;-1.15;60.97;99347.69;4153362;28;20220;-48
2022/03/10 03:44:04;;;;;;;20.23;18.40;;;;;;;-1.16;61.33;99345.97;4136927;28;20229;-48
2022/03/10 03:46:05;;;;;;;22.00;19.90;;;;;;;-1.20;61.27;99347.28;4136893;28;20272;-48
2022/03/10 03:48:07;;;;;;;21.00;19.00;;;;;;;-1.23;61.29;99344.91;4169883;28;20211;-50
2022/03/10 03:50:10;;;;;;;20.40;17.97;;;;;;;-1.25;61.30;99341.53;4139111;28;20280;-49
2022/03/10 03:52:11;;;;;;;22.53;17.73;;;;;;;-1.26;61.47;99345.22;4138973;28;20210;-50
2022/03/10 03:54:13;;;;;;;21.33;19.30;;;;;;;-1.24;61.46;99351.28;4141160;28;20209;-49
2022/03/10 03:56:16;;;;;;;17.00;15.40;;;;;;;-1.26;61.24;99351.44;4138822;28;20209;-49
2022/03/10 03:58:19;;;;;;;19.30;17.27;;;;;;;-1.24;61.58;99348.59;4144614;28;21055;-48
2022/03/10 04:00:20;;;;;;;20.90;18.70;;;;;;;-1.24;61.33;99348.59;4156293;28;20201;-49
2022/03/10 04:02:22;;;;;;;19.00;17.37;;;;;;;-1.23;61.56;99344.91;4155867;28;20205;-51
2022/03/10 04:04:24;;;;;;;18.43;16.67;;;;;;;-1.24;61.35;99348.59;4142816;28;20214;-49
2022/03/10 04:06:26;;;;;;;19.57;17.67;;;;;;;-1.29;61.40;99348.22;4137945;28;20222;-49
2022/03/10 04:08:28;;;;;;;18.13;16.43;;;;;;;-1.33;61.68;99349.53;4143266;28;20748;-57
2022/03/10 04:10:30;;;;;;;20.73;19.00;;;;;;;-1.33;61.79;99349.53;4135631;28;20228;-51
2022/03/10 04:12:32;;;;;;;20.40;18.27;;;;;;;-1.36;62.08;99360.56;4141231;28;20221;-52
2022/03/10 04:14:34;;;;;;;20.73;18.80;;;;;;;-1.38;61.63;99351.84;4157713;28;20634;-51
2022/03/10 04:16:35;;;;;;;20.33;18.33;;;;;;;-1.37;61.77;99362.41;4153675;28;20588;-48
2022/03/10 04:18:37;;;;;;;18.27;16.67;;;;;;;-1.38;61.63;99362.56;4151122;28;20225;-49
2022/03/10 04:20:39;;;;;;;20.03;18.17;;;;;;;-1.38;61.78;99358.06;4140684;28;20201;-52
2022/03/10 04:22:41;;;;;;;19.83;18.13;;;;;;;-1.39;61.42;99367.09;4121410;28;20314;-49
2022/03/10 04:24:43;;;;;;;17.70;16.00;;;;;;;-1.45;62.00;99369.53;4139923;28;20244;-50
2022/03/10 04:26:44;;;;;;;19.47;17.67;;;;;;;-1.52;61.85;99361.28;4139002;28;20787;-50
2022/03/10 04:28:46;;;;;;;17.50;15.83;;;;;;;-1.55;62.20;99360.75;4141476;28;20268;-49
2022/03/10 04:30:48;;;;;;;16.80;15.30;;;;;;;-1.57;62.42;99362.72;4143946;28;20237;-49
2022/03/10 04:32:50;;;;;;;16.97;15.47;;;;;;;-1.55;62.41;99358.06;4122634;28;20210;-51
2022/03/10 04:34:52;;;;;;;16.60;15.20;;;;;;;-1.56;62.13;99359.88;4152047;28;20201;-49
2022/03/10 04:36:56;;;;;;;19.83;15.60;;;;;;;-1.57;61.73;99358.22;4139637;28;20193;-49
2022/03/10 04:38:58;;;;;;;19.53;17.80;;;;;;;-1.56;62.10;99359.03;4142917;28;20292;-48
2022/03/10 04:41:00;;;;;;;18.93;17.23;;;;;;;-1.58;62.16;99361.03;4137698;28;20205;-49
2022/03/10 04:43:01;;;;;;;19.20;16.67;;;;;;;-1.58;61.84;99361.03;4152540;28;20201;-49
2022/03/10 04:45:04;;;;;;;19.63;17.73;;;;;;;-1.60;61.81;99363.03;4152076;28;20209;-49
2022/03/10 04:47:06;;;;;;;17.23;15.60;;;;;;;-1.65;62.65;99366.19;4170016;28;20251;-49
2022/03/10 04:49:09;;;;;;;17.93;16.30;;;;;;;-1.65;62.07;99362.66;4136630;28;20221;-48
2022/03/10 04:51:10;;;;;;;18.43;16.70;;;;;;;-1.67;62.16;99361.97;4167247;28;20207;-48
2022/03/10 04:53:12;;;;;;;20.03;17.27;;;;;;;-1.72;62.31;99364.25;4168319;28;20211;-49
2022/03/10 04:55:14;;;;;;;16.57;15.07;;;;;;;-1.72;62.50;99361.56;4133778;28;20356;-49
2022/03/10 04:57:16;;;;;;;16.97;15.33;;;;;;;-1.73;62.47;99363.41;4139331;28;20201;-49
2022/03/10 04:59:18;;;;;;;17.97;16.27;;;;;;;-1.75;62.14;99367.25;4136860;28;20697;-49
2022/03/10 05:01:19;;;;;;;20.73;15.20;;;;;;;-1.74;62.51;99366.25;4137327;28;20864;-49
2022/03/10 05:03:21;;;;;;;17.20;15.70;;;;;;;-1.74;62.50;99371.63;4140027;28;20213;-49
2022/03/10 05:05:23;;;;;;;16.80;15.30;;;;;;;-1.75;62.66;99369.94;4135255;28;20248;-51
2022/03/10 05:07:25;;;;;;;17.23;15.53;;;;;;;-1.75;62.24;99380.66;4137856;28;20273;-49
2022/03/10 05:09:26;;;;;;;24.80;17.70;;;;;;;-1.80;62.65;99372.22;4152850;28;20221;-50
2022/03/10 05:11:28;;;;;;;17.57;16.03;;;;;;;-1.82;62.69;99368.84;4150666;28;20588;-48
2022/03/10 05:13:30;;;;;;;18.37;16.53;;;;;;;-1.86;62.67;99367.47;4152277;28;20728;-49
2022/03/10 05:15:32;;;;;;;19.67;17.73;;;;;;;-1.87;62.38;99365.78;4153970;28;20211;-49
2022/03/10 05:17:33;;;;;;;21.17;18.97;;;;;;;-1.86;62.58;99368.31;4152323;28;20217;-52
2022/03/10 05:19:41;;;;;;;17.23;15.73;;;;;;;-1.86;62.93;99362.97;4134339;28;20327;-49
2022/03/10 05:21:43;;;;;;;18.80;17.03;;;;;;;-1.89;62.86;99373.13;4154518;28;20239;-50
2022/03/10 05:23:44;;;;;;;17.90;16.07;;;;;;;-1.93;62.79;99366.38;4166089;28;20261;-50
2022/03/10 05:25:46;;;;;;;17.87;16.13;;;;;;;-1.96;62.81;99372.03;4136588;28;20236;-52
2022/03/10 05:27:49;;;;;;;16.97;15.47;;;;;;;-1.95;62.96;99363.03;4136943;28;20658;-51
2022/03/10 05:29:53;;;;;;;18.23;16.33;;;;;;;-1.98;62.80;99363.31;4154134;28;20263;-49
2022/03/10 05:31:55;;;;;;;17.73;16.00;;;;;;;-2.02;63.09;99368.13;4135317;28;20212;-49
2022/03/10 05:33:57;;;;;;;17.77;16.00;;;;;;;-2.03;62.64;99365.59;4135269;28;20284;-50
2022/03/10 05:35:59;;;;;;;18.53;16.53;;;;;;;-2.04;62.55;99369.25;4134808;28;20746;-51
2022/03/10 05:38:00;;;;;;;17.63;14.83;;;;;;;-2.02;62.79;99378.03;4136466;28;20213;-50
2022/03/10 05:40:05;;;;;;;19.10;16.63;;;;;;;-2.01;62.94;99371.66;4124009;28;20221;-49
2022/03/10 05:42:07;;;;;;;21.07;16.87;;;;;;;-2.00;62.86;99376.03;4143158;28;20687;-50
2022/03/10 05:44:08;;;;;;;15.97;14.43;;;;;;;-1.99;63.06;99375.03;4137197;28;20260;-49
2022/03/10 05:46:10;;;;;;;16.70;14.77;;;;;;;-1.99;62.88;99375.03;4141567;28;20729;-49
2022/03/10 05:48:12;;;;;;;17.67;15.93;;;;;;;-2.02;63.41;99373.47;4142660;28;20300;-48
2022/03/10 05:50:14;;;;;;;16.93;15.53;;;;;;;-2.03;62.94;99384.34;4154150;28;20208;-49
2022/03/10 05:52:18;;;;;;;17.77;15.90;;;;;;;-2.03;62.69;99384.34;4153772;28;20209;-48
2022/03/10 05:54:24;;;;;;;18.07;16.37;;;;;;;-2.03;62.91;99379.00;4153421;28;20239;-52
2022/03/10 05:56:26;;;;;;;17.63;15.47;;;;;;;-2.03;62.73;99387.88;4135216;28;20268;-49
2022/03/10 05:58:28;;;;;;;17.87;16.07;;;;;;;-2.04;63.03;99377.31;4137665;28;20658;-51
2022/03/10 06:00:30;;;;;;;19.13;15.33;;;;;;;-2.04;62.80;99374.63;4168698;28;20235;-50
2022/03/10 06:02:31;;;;;;;19.43;17.53;;;;;;;-2.04;62.87;99380.84;4151076;28;20207;-50
2022/03/10 06:04:33;;;;;;;16.40;14.67;;;;;;;-2.07;62.97;99380.31;4137322;28;20218;-51
2022/03/10 06:06:35;;;;;;;17.60;15.90;;;;;;;-2.12;63.62;99387.94;4136040;28;20756;-52
2022/03/10 06:08:37;;;;;;;19.33;17.60;;;;;;;-2.19;63.38;99387.72;4135286;28;20243;-49
2022/03/10 06:10:39;;;;;;;18.13;16.27;;;;;;;-2.16;63.40;99391.91;4125266;28;20210;-49
2022/03/10 06:12:40;;;;;;;16.73;15.07;;;;;;;-2.14;63.34;99387.25;4136638;28;20221;-51
2022/03/10 06:14:44;;;;;;;28.67;18.50;;;;;;;-2.13;63.48;99391.63;4155545;28;20205;-48
2022/03/10 06:16:45;;;;;;;17.50;15.97;;;;;;;-2.10;63.18;99388.63;4138716;28;20206;-50
2022/03/10 06:18:47;;;;;;;19.13;15.70;;;;;;;-2.10;63.12;99394.84;4121776;28;20239;-50
2022/03/10 06:20:49;;;;;;;17.63;16.13;;;;;;;-2.08;63.14;99402.75;4136878;28;20224;-50
2022/03/10 06:22:52;;;;;;;18.83;17.13;;;;;;;-2.08;63.24;99400.06;4169873;28;20204;-48
2022/03/10 06:24:53;;;;;;;18.63;16.90;;;;;;;-2.08;63.79;99410.78;4155730;28;20259;-49
2022/03/10 06:26:55;;;;;;;18.53;16.73;;;;;;;-2.06;63.59;99408.78;4124303;28;20229;-48
2022/03/10 06:28:57;;;;;;;17.57;15.97;;;;;;;-2.06;63.40;99406.09;4140153;28;20295;-49
2022/03/10 06:30:59;;;;;;;16.83;15.33;;;;;;;-2.04;63.55;99406.78;4140683;28;20201;-50
2022/03/10 06:33:01;;;;;;;18.77;16.97;;;;;;;-2.05;63.90;99407.78;4154892;28;20239;-49
2022/03/10 06:35:03;;;;;;;18.67;16.97;;;;;;;-2.02;63.87;99412.88;4140640;28;20208;-49
2022/03/10 06:37:05;;;;;;;17.73;14.83;;;;;;;-2.01;63.58;99411.88;4137909;28;20705;-49
2022/03/10 06:39:07;;;;;;;18.83;16.83;;;;;;;-1.96;63.56;99420.28;4137380;28;20288;-49
2022/03/10 06:41:08;;;;;;;17.30;15.57;;;;;;;-1.95;63.25;99419.31;4134443;28;20210;-50
2022/03/10 06:43:10;;;;;;;20.50;18.63;;;;;;;-1.92;63.64;99424.38;4122040;28;20218;-49
2022/03/10 06:45:12;;;;;;;18.80;17.30;;;;;;;-1.91;64.01;99424.22;4136487;28;20248;-50
2022/03/10 06:47:13;;;;;;;18.80;16.53;;;;;;;-1.87;63.75;99430.13;4172050;28;20217;-51
2022/03/10 06:49:15;;;;;;;19.13;17.13;;;;;;;-1.86;64.00;99432.69;4156871;28;20699;-49
2022/03/10 06:51:17;;;;;;;18.60;16.87;;;;;;;-1.73;63.64;99432.31;4136885;28;20256;-50
2022/03/10 06:53:19;;;;;;;20.03;18.23;;;;;;;-1.28;64.10;99433.13;4138378;28;20217;-49
2022/03/10 06:55:20;;;;;;;23.10;17.53;;;;;;;-0.67;63.56;99436.66;4136500;28;20589;-49
2022/03/10 06:57:22;;;;;;;20.97;18.87;;;;;;;0.13;62.74;99436.09;4136441;28;20214;-50
2022/03/10 06:59:24;;;;;;;20.73;18.93;;;;;;;0.15;62.02;99434.09;4137363;28;20217;-49
2022/03/10 07:01:29;;;;;;;20.63;17.57;;;;;;;0.36;61.21;99437.19;4149914;28;20208;-51
2022/03/10 07:03:31;;;;;;;24.50;20.20;;;;;;;0.54;60.39;99435.22;4139616;28;20802;-49
2022/03/10 07:05:33;;;;;;;21.73;19.10;;;;;;;0.78;59.58;99429.06;4138761;28;20240;-51
2022/03/10 07:07:35;;;;;;;23.90;18.17;;;;;;;0.92;57.97;99437.31;4123693;28;20257;-50
2022/03/10 07:09:37;;;;;;;19.20;17.47;;;;;;;0.94;57.69;99435.28;4160530;28;20271;-52
2022/03/10 07:11:39;;;;;;;43.20;23.77;;;;;;;0.75;57.85;99443.69;4137759;28;20211;-50
2022/03/10 07:13:46;;;;;;;21.50;18.33;;;;;;;0.54;58.47;99445.19;4140363;28;20214;-51
2022/03/10 07:15:48;;;;;;;23.67;19.57;;;;;;;0.40;58.36;99441.25;4152268;28;20248;-49
2022/03/10 07:17:54;;;;;;;23.13;17.73;;;;;;;0.17;58.66;99437.47;4139675;28;20260;-53
2022/03/10 07:19:55;;;;;;;30.57;17.67;;;;;;;0.09;59.14;99450.88;4136903;28;20815;-50
2022/03/10 07:21:57;;;;;;;33.73;16.70;;;;;;;-0.01;59.45;99443.94;4151745;28;20235;-49
2022/03/10 07:23:59;;;;;;;19.90;18.10;;;;;;;-0.06;59.69;99447.09;4143326;28;20749;-50
2022/03/10 07:26:00;;;;;;;20.27;18.27;;;;;;;0.00;60.00;99440.28;4171189;28;20227;-49
2022/03/10 07:28:02;;;;;;;20.07;18.00;;;;;;;0.25;59.93;99442.88;4137215;28;20289;-51
2022/03/10 07:30:05;;;;;;;19.13;17.23;;;;;;;0.83;59.84;99450.94;4136616;28;20280;-50
2022/03/10 07:32:07;;;;;;;19.00;17.10;;;;;;;1.82;57.83;99446.00;4151648;28;20578;-49
2022/03/10 07:34:09;;;;;;;19.30;17.43;;;;;;;3.20;56.23;99437.88;4135422;28;20272;-49
2022/03/10 07:36:11;;;;;;;30.03;17.93;;;;;;;3.17;54.48;99440.09;4122724;28;20713;-50
2022/03/10 07:38:12;;;;;;;22.53;18.20;;;;;;;3.26;53.67;99434.47;4142037;28;20216;-51
2022/03/10 07:40:14;;;;;;;21.00;17.10;;;;;;;3.06;53.48;99443.25;4137025;28;20639;-50
2022/03/10 07:42:16;;;;;;;30.87;17.73;;;;;;;3.24;53.18;99444.63;4150749;28;20267;-55
2022/03/10 07:44:17;;;;;;;19.53;17.70;;;;;;;3.32;53.47;99443.69;4167878;28;20232;-52
2022/03/10 07:46:22;;;;;;;19.10;17.27;;;;;;;4.50;53.50;99442.63;4150516;28;20201;-50
2022/03/10 07:48:24;;;;;;;20.15;16.27;;;;;;;4.09;51.57;99438.72;4171495;28;20255;-51
2022/03/10 07:50:26;;;;;;;17.92;15.75;;;;;;;4.91;50.58;99442.88;4141743;28;20202;-49
2022/03/10 07:52:28;;;;;;;18.70;16.80;;;;;;;4.91;49.75;99434.75;4121601;28;20202;-49
2022/03/10 07:54:30;;;;;;;19.40;17.38;;;;;;;4.74;50.27;99428.72;4139682;28;20202;-51
2022/03/10 07:56:32;;;;;;;18.65;16.95;;;;;;;4.51;50.42;99425.31;4137166;28;21007;-49
2022/03/10 07:58:33;;;;;;;18.42;16.70;;;;;;;4.83;50.75;99433.00;4156432;28;20708;-48
2022/03/10 08:00:35;;;;;;;19.70;17.63;;;;;;;4.61;50.17;99433.97;4155883;28;20217;-50
2022/03/10 08:02:40;;;;;;;17.92;16.20;;;;;;;4.59;51.01;99430.63;4151404;28;20215;-48
2022/03/10 08:04:42;;;;;;;20.50;18.40;;;;;;;4.81;50.73;99417.97;4157134;28;20220;-51
2022/03/10 08:06:44;;;;;;;20.85;17.58;;;;;;;5.02;50.10;99420.69;4134334;28;20212;-50
2022/03/10 08:08:46;;;;;;;19.67;17.73;;;;;;;4.81;50.41;99418.78;4137018;28;20271;-50
2022/03/10 08:10:48;;;;;;;19.75;17.17;;;;;;;5.44;49.87;99410.69;4119085;28;20230;-55
2022/03/10 08:12:50;;;;;;;41.10;18.10;;;;;;;6.19;48.86;99406.22;4168318;28;20330;-50
2022/03/10 08:14:53;;;;;;;20.33;18.05;;;;;;;6.12;49.27;99410.78;4150140;28;20267;-50
2022/03/10 08:16:55;;;;;;;25.27;16.88;;;;;;;7.84;46.88;99405.38;4169084;28;20223;-50
2022/03/10 08:18:56;;;;;;;19.95;17.98;;;;;;;7.89;45.22;99405.59;4153548;28;20775;-47
2022/03/10 08:20:59;;;;;;;17.73;15.65;;;;;;;9.13;44.11;99409.59;4168095;28;20200;-51
2022/03/10 08:23:02;;;;;;;18.77;16.98;;;;;;;9.74;42.73;99412.53;4134629;28;20217;-51
2022/03/10 08:25:04;;;;;;;19.60;17.80;;;;;;;10.31;41.12;99409.50;4136614;28;21171;-52
2022/03/10 08:27:07;;;;;;;19.27;17.38;;;;;;;10.65;40.89;99406.16;4135395;28;20822;-54
2022/03/10 08:29:09;;;;;;;21.70;18.42;;;;;;;10.77;40.53;99398.84;4152507;28;20262;-52
2022/03/10 08:31:11;;;;;;;22.05;18.25;;;;;;;11.19;39.72;99398.69;4134081;28;20205;-50
2022/03/10 08:33:12;;;;;;;20.10;17.45;;;;;;;11.21;39.37;99391.06;4169221;28;20209;-50
2022/03/10 08:35:16;;;;;;;18.45;16.60;;;;;;;12.03;38.34;99386.38;4118590;28;20655;-52
2022/03/10 08:37:29;;;;;;;19.88;17.95;;;;;;;12.04;37.89;99385.31;4134730;28;20201;-49
2022/03/10 08:39:31;;;;;;;20.42;17.90;;;;;;;12.35;38.18;99378.63;4152964;28;20239;-49
2022/03/10 08:41:33;;;;;;;22.85;17.48;;;;;;;12.51;38.54;99381.47;4138562;28;20201;-49
2022/03/10 08:43:34;;;;;;;18.77;17.02;;;;;;;12.58;38.21;99384.91;4138620;28;20628;-49
2022/03/10 08:45:37;;;;;;;24.88;16.08;;;;;;;12.84;37.47;99378.88;4122920;28;20578;-47
2022/03/10 08:47:41;;;;;;;17.75;16.08;;;;;;;12.42;37.70;99373.84;4139142;28;20620;-48
2022/03/10 08:49:43;;;;;;;21.02;16.73;;;;;;;12.52;37.77;99374.06;4156787;28;20935;-48
2022/03/10 08:51:45;;;;;;;18.17;16.60;;;;;;;12.91;36.91;99387.81;4170012;28;20284;-48
2022/03/10 08:53:47;;;;;;;17.15;15.73;;;;;;;13.02;37.31;99381.47;4123762;28;20324;-48
2022/03/10 08:55:49;;;;;;;19.55;16.02;;;;;;;12.30;38.46;99371.09;4140736;28;20229;-48
2022/03/10 08:57:55;;;;;;;18.77;17.05;;;;;;;12.83;37.84;99374.47;4127060;28;20210;-49
2022/03/10 08:59:57;;;;;;;19.05;17.15;;;;;;;13.11;37.25;99374.50;4169659;28;20290;-48
2022/03/10 09:01:59;;;;;;;16.65;15.13;;;;;;;12.78;37.35;99368.84;4140827;28;20205;-48
2022/03/10 09:04:02;;;;;;;18.33;16.60;;;;;;;12.72;37.79;99374.50;4141461;28;20291;-48
2022/03/10 09:06:03;;;;;;;19.85;17.67;;;;;;;12.80;37.53;99372.22;4138305;28;20237;-47
2022/03/10 09:08:05;;;;;;;18.17;16.58;;;;;;;13.32;37.34;99373.84;4152019;28;20229;-48
2022/03/10 09:10:10;;;;;;;17.60;15.85;;;;;;;13.70;36.52;99373.97;4124321;28;20322;-48
2022/03/10 09:12:12;;;;;;;18.63;17.02;;;;;;;13.53;36.92;99367.63;4138468;28;20241;-48
2022/03/10 09:14:14;;;;;;;16.42;15.02;;;;;;;14.42;35.88;99364.66;4139928;28;20684;-47
2022/03/10 09:16:17;;;;;;;18.60;15.95;;;;;;;14.29;35.25;99362.28;4155454;28;20247;-49
2022/03/10 09:18:19;;;;;;;19.35;17.40;;;;;;;13.27;37.47;99367.38;4138876;28;20258;-50
2022/03/10 09:20:22;;;;;;;15.52;14.23;;;;;;;14.10;36.01;99362.78;4135795;28;20248;-48
2022/03/10 09:22:25;;;;;;;16.05;14.60;;;;;;;13.98;36.03;99356.53;4126203;28;20209;-48
2022/03/10 09:24:27;;;;;;;16.83;15.30;;;;;;;14.01;36.22;99359.63;4153023;28;20244;-48
2022/03/10 09:26:29;;;;;;;17.00;15.10;;;;;;;14.82;35.03;99351.44;4122258;28;20553;-50
2022/03/10 09:28:30;;;;;;;14.90;13.50;;;;;;;14.85;34.96;99350.94;4137584;28;20604;-51
2022/03/10 09:30:32;;;;;;;17.48;14.68;;;;;;;15.15;35.06;99356.78;4136581;28;20201;-49